sensor_id;sensor_type;location;lat;lon;timestamp;pressure;altitude;pressure_sealevel;temperature;humidity
28306;BME280;7516;43.570;1.448;2023-03-19T00:00:37;99716.31;;;11.83;100.00
28306;BME280;7516;43.570;1.448;2023-03-19T00:03:04;99710.41;;;11.81;100.00
28306;BME280;7516;43.570;1.448;2023-03-19T00:05:32;99712.59;;;11.77;100.00
28306;BME280;7516;43.570;1.448;2023-03-19T00:07:59;99710.16;;;11.76;100.00
28306;BME280;7516;43.570;1.448;2023-03-19T00:10:28;99716.03;;;11.78;100.00
28306;BME280;7516;43.570;1.448;2023-03-19T00:12:56;99705.88;;;11.75;100.00
28306;BME280;7516;43.570;1.448;2023-03-19T00:15:23;99714.91;;;11.72;100.00
28306;BME280;7516;43.570;1.448;2023-03-19T00:17:51;99719.16;;;11.73;100.00
28306;BME280;7516;43.570;1.448;2023-03-19T00:20:19;99716.72;;;11.72;100.00
28306;BME280;7516;43.570;1.448;2023-03-19T00:22:47;99717.03;;;11.77;100.00
28306;BME280;7516;43.570;1.448;2023-03-19T00:25:14;99709.00;;;11.70;100.00
28306;BME280;7516;43.570;1.448;2023-03-19T00:27:43;99708.66;;;11.73;100.00
28306;BME280;7516;43.570;1.448;2023-03-19T00:30:12;99703.75;;;11.70;100.00
28306;BME280;7516;43.570;1.448;2023-03-19T00:32:40;99710.84;;;11.69;100.00
28306;BME280;7516;43.570;1.448;2023-03-19T00:35:08;99716.72;;;11.72;100.00
28306;BME280;7516;43.570;1.448;2023-03-19T00:37:36;99703.75;;;11.70;100.00
28306;BME280;7516;43.570;1.448;2023-03-19T00:40:04;99707.03;;;11.72;100.00
28306;BME280;7516;43.570;1.448;2023-03-19T00:42:32;99715.28;;;11.69;100.00
28306;BME280;7516;43.570;1.448;2023-03-19T00:45:02;99717.91;;;11.69;100.00
28306;BME280;7516;43.570;1.448;2023-03-19T00:47:29;99717.25;;;11.67;100.00
28306;BME280;7516;43.570;1.448;2023-03-19T00:49:57;99724.50;;;11.65;100.00
28306;BME280;7516;43.570;1.448;2023-03-19T00:52:24;99720.88;;;11.66;100.00
28306;BME280;7516;43.570;1.448;2023-03-19T00:54:52;99727.13;;;11.65;100.00
28306;BME280;7516;43.570;1.448;2023-03-19T00:57:19;99725.81;;;11.61;100.00
28306;BME280;7516;43.570;1.448;2023-03-19T00:59:47;99730.72;;;11.64;100.00
28306;BME280;7516;43.570;1.448;2023-03-19T01:02:16;99720.22;;;11.64;100.00
28306;BME280;7516;43.570;1.448;2023-03-19T01:04:43;99723.66;;;11.64;100.00
28306;BME280;7516;43.570;1.448;2023-03-19T01:07:11;99730.72;;;11.64;100.00
28306;BME280;7516;43.570;1.448;2023-03-19T01:09:38;99735.16;;;11.63;100.00
28306;BME280;7516;43.570;1.448;2023-03-19T01:12:06;99727.47;;;11.62;100.00
28306;BME280;7516;43.570;1.448;2023-03-19T01:14:34;99729.47;;;11.60;100.00
28306;BME280;7516;43.570;1.448;2023-03-19T01:17:01;99730.16;;;11.54;100.00
28306;BME280;7516;43.570;1.448;2023-03-19T01:19:30;99728.09;;;11.49;100.00
28306;BME280;7516;43.570;1.448;2023-03-19T01:21:58;99731.16;;;11.53;100.00
28306;BME280;7516;43.570;1.448;2023-03-19T01:24:29;99733.78;;;11.53;100.00
28306;BME280;7516;43.570;1.448;2023-03-19T01:26:56;99725.63;;;11.48;100.00
28306;BME280;7516;43.570;1.448;2023-03-19T01:29:24;99737.59;;;11.50;100.00
28306;BME280;7516;43.570;1.448;2023-03-19T01:31:51;99738.41;;;11.51;100.00
28306;BME280;7516;43.570;1.448;2023-03-19T01:34:19;99740.66;;;11.54;100.00
28306;BME280;7516;43.570;1.448;2023-03-19T01:36:48;99734.50;;;11.47;100.00
28306;BME280;7516;43.570;1.448;2023-03-19T01:39:15;99740.81;;;11.52;100.00
28306;BME280;7516;43.570;1.448;2023-03-19T01:41:43;99736.22;;;11.54;100.00
28306;BME280;7516;43.570;1.448;2023-03-19T01:44:24;99738.69;;;11.56;100.00
28306;BME280;7516;43.570;1.448;2023-03-19T01:46:52;99734.59;;;11.53;100.00
28306;BME280;7516;43.570;1.448;2023-03-19T01:49:21;99734.97;;;11.50;100.00
28306;BME280;7516;43.570;1.448;2023-03-19T01:51:51;99736.59;;;11.51;100.00
28306;BME280;7516;43.570;1.448;2023-03-19T01:54:22;99727.69;;;11.52;100.00
28306;BME280;7516;43.570;1.448;2023-03-19T01:56:54;99734.78;;;11.52;100.00
28306;BME280;7516;43.570;1.448;2023-03-19T01:59:26;99730.22;;;11.46;100.00
28306;BME280;7516;43.570;1.448;2023-03-19T02:01:57;99729.88;;;11.49;100.00
28306;BME280;7516;43.570;1.448;2023-03-19T02:04:26;99737.41;;;11.52;100.00
28306;BME280;7516;43.570;1.448;2023-03-19T02:06:58;99737.59;;;11.50;100.00
28306;BME280;7516;43.570;1.448;2023-03-19T02:09:28;99737.94;;;11.47;100.00
28306;BME280;7516;43.570;1.448;2023-03-19T02:11:56;99740.38;;;11.49;100.00
28306;BME280;7516;43.570;1.448;2023-03-19T02:14:25;99737.75;;;11.49;100.00
28306;BME280;7516;43.570;1.448;2023-03-19T02:16:53;99748.25;;;11.49;100.00
28306;BME280;7516;43.570;1.448;2023-03-19T02:19:26;99737.13;;;11.47;100.00
28306;BME280;7516;43.570;1.448;2023-03-19T02:21:57;99735.88;;;11.35;100.00
28306;BME280;7516;43.570;1.448;2023-03-19T02:24:32;99736.84;;;11.42;100.00
28306;BME280;7516;43.570;1.448;2023-03-19T02:27:03;99737.34;;;11.37;100.00
28306;BME280;7516;43.570;1.448;2023-03-19T02:29:31;99740.78;;;11.38;100.00
28306;BME280;7516;43.570;1.448;2023-03-19T02:31:59;99747.69;;;11.39;100.00
28306;BME280;7516;43.570;1.448;2023-03-19T02:34:36;99745.06;;;11.39;100.00
28306;BME280;7516;43.570;1.448;2023-03-19T02:37:09;99742.78;;;11.36;100.00
28306;BME280;7516;43.570;1.448;2023-03-19T02:39:44;99738.25;;;11.29;100.00
28306;BME280;7516;43.570;1.448;2023-03-19T02:42:17;99743.75;;;11.35;100.00
28306;BME280;7516;43.570;1.448;2023-03-19T02:44:46;99742.22;;;11.25;100.00
28306;BME280;7516;43.570;1.448;2023-03-19T02:47:14;99740.69;;;11.31;100.00
28306;BME280;7516;43.570;1.448;2023-03-19T02:49:42;99737.59;;;11.27;100.00
28306;BME280;7516;43.570;1.448;2023-03-19T02:52:10;99734.97;;;11.27;100.00
28306;BME280;7516;43.570;1.448;2023-03-19T02:54:37;99739.78;;;11.24;100.00
28306;BME280;7516;43.570;1.448;2023-03-19T02:57:05;99743.72;;;11.20;100.00
28306;BME280;7516;43.570;1.448;2023-03-19T02:59:34;99737.00;;;11.17;100.00
28306;BME280;7516;43.570;1.448;2023-03-19T03:02:02;99747.22;;;11.12;100.00
28306;BME280;7516;43.570;1.448;2023-03-19T03:04:30;99745.91;;;11.16;100.00
28306;BME280;7516;43.570;1.448;2023-03-19T03:06:57;99750.59;;;11.21;100.00
28306;BME280;7516;43.570;1.448;2023-03-19T03:09:25;99744.19;;;11.23;100.00
28306;BME280;7516;43.570;1.448;2023-03-19T03:11:53;99739.47;;;11.19;100.00
28306;BME280;7516;43.570;1.448;2023-03-19T03:14:20;99743.06;;;11.18;100.00
28306;BME280;7516;43.570;1.448;2023-03-19T03:16:49;99748.03;;;11.13;100.00
28306;BME280;7516;43.570;1.448;2023-03-19T03:19:16;99746.22;;;11.13;100.00
28306;BME280;7516;43.570;1.448;2023-03-19T03:21:44;99748.69;;;11.15;100.00
28306;BME280;7516;43.570;1.448;2023-03-19T03:24:11;99746.88;;;11.15;100.00
28306;BME280;7516;43.570;1.448;2023-03-19T03:26:39;99745.25;;;11.14;100.00
28306;BME280;7516;43.570;1.448;2023-03-19T03:29:07;99749.50;;;11.15;100.00
28306;BME280;7516;43.570;1.448;2023-03-19T03:31:34;99746.41;;;11.12;100.00
28306;BME280;7516;43.570;1.448;2023-03-19T03:34:03;99749.84;;;11.12;100.00
28306;BME280;7516;43.570;1.448;2023-03-19T03:36:30;99749.03;;;11.12;100.00
28306;BME280;7516;43.570;1.448;2023-03-19T03:38:59;99752.75;;;11.17;100.00
28306;BME280;7516;43.570;1.448;2023-03-19T03:41:26;99749.50;;;11.15;100.00
28306;BME280;7516;43.570;1.448;2023-03-19T03:43:54;99755.38;;;11.17;100.00
28306;BME280;7516;43.570;1.448;2023-03-19T03:46:21;99755.19;;;11.19;100.00
28306;BME280;7516;43.570;1.448;2023-03-19T03:48:49;99759.28;;;11.21;100.00
28306;BME280;7516;43.570;1.448;2023-03-19T03:51:19;99762.25;;;11.18;100.00
28306;BME280;7516;43.570;1.448;2023-03-19T03:53:47;99768.31;;;11.19;100.00
28306;BME280;7516;43.570;1.448;2023-03-19T03:56:14;99760.34;;;11.12;100.00
28306;BME280;7516;43.570;1.448;2023-03-19T03:58:42;99766.34;;;11.21;100.00
28306;BME280;7516;43.570;1.448;2023-03-19T04:01:13;99767.50;;;11.18;100.00
28306;BME280;7516;43.570;1.448;2023-03-19T04:03:41;99767.81;;;11.23;100.00
28306;BME280;7516;43.570;1.448;2023-03-19T04:06:13;99772.06;;;11.24;100.00
28306;BME280;7516;43.570;1.448;2023-03-19T04:08:43;99777.31;;;11.24;100.00
28306;BME280;7516;43.570;1.448;2023-03-19T04:11:11;99783.53;;;11.23;100.00
28306;BME280;7516;43.570;1.448;2023-03-19T04:13:38;99774.84;;;11.23;100.00
28306;BME280;7516;43.570;1.448;2023-03-19T04:16:07;99772.75;;;11.18;100.00
28306;BME280;7516;43.570;1.448;2023-03-19T04:18:35;99778.63;;;11.20;100.00
28306;BME280;7516;43.570;1.448;2023-03-19T04:21:03;99785.50;;;11.21;100.00
28306;BME280;7516;43.570;1.448;2023-03-19T04:23:31;99780.44;;;11.20;100.00
28306;BME280;7516;43.570;1.448;2023-03-19T04:26:01;99787.22;;;11.14;100.00
28306;BME280;7516;43.570;1.448;2023-03-19T04:28:29;99796.53;;;11.17;100.00
28306;BME280;7516;43.570;1.448;2023-03-19T04:30:59;99800.50;;;11.13;100.00
28306;BME280;7516;43.570;1.448;2023-03-19T04:33:27;99807.72;;;11.11;100.00
28306;BME280;7516;43.570;1.448;2023-03-19T04:35:56;99798.38;;;11.08;100.00
28306;BME280;7516;43.570;1.448;2023-03-19T04:38:23;99803.97;;;11.05;100.00
28306;BME280;7516;43.570;1.448;2023-03-19T04:40:52;99808.28;;;10.98;100.00
28306;BME280;7516;43.570;1.448;2023-03-19T04:43:22;99808.09;;;11.00;100.00
28306;BME280;7516;43.570;1.448;2023-03-19T04:45:50;99811.53;;;11.00;100.00
28306;BME280;7516;43.570;1.448;2023-03-19T04:48:17;99811.72;;;10.99;100.00
28306;BME280;7516;43.570;1.448;2023-03-19T04:50:45;99815.16;;;10.99;100.00
28306;BME280;7516;43.570;1.448;2023-03-19T04:53:16;99811.56;;;10.92;100.00
28306;BME280;7516;43.570;1.448;2023-03-19T04:55:45;99821.56;;;10.97;100.00
28306;BME280;7516;43.570;1.448;2023-03-19T04:58:13;99826.16;;;10.94;100.00
28306;BME280;7516;43.570;1.448;2023-03-19T05:00:42;99826.31;;;10.93;100.00
28306;BME280;7516;43.570;1.448;2023-03-19T05:03:12;99839.09;;;10.96;100.00
28306;BME280;7516;43.570;1.448;2023-03-19T05:05:39;99839.25;;;10.94;100.00
28306;BME280;7516;43.570;1.448;2023-03-19T05:08:07;99830.59;;;10.94;100.00
28306;BME280;7516;43.570;1.448;2023-03-19T05:10:35;99838.28;;;10.96;100.00
28306;BME280;7516;43.570;1.448;2023-03-19T05:13:02;99842.06;;;10.93;100.00
28306;BME280;7516;43.570;1.448;2023-03-19T05:15:30;99833.84;;;10.96;100.00
28306;BME280;7516;43.570;1.448;2023-03-19T05:17:59;99840.09;;;10.95;100.00
28306;BME280;7516;43.570;1.448;2023-03-19T05:20:26;99839.91;;;10.97;100.00
28306;BME280;7516;43.570;1.448;2023-03-19T05:22:54;99857.13;;;10.99;100.00
28306;BME280;7516;43.570;1.448;2023-03-19T05:25:21;99855.66;;;10.97;100.00
28306;BME280;7516;43.570;1.448;2023-03-19T05:27:49;99852.66;;;11.00;100.00
28306;BME280;7516;43.570;1.448;2023-03-19T05:30:16;99851.88;;;10.99;100.00
28306;BME280;7516;43.570;1.448;2023-03-19T05:32:44;99854.50;;;10.99;100.00
28306;BME280;7516;43.570;1.448;2023-03-19T05:35:13;99859.38;;;11.02;100.00
28306;BME280;7516;43.570;1.448;2023-03-19T05:37:41;99861.06;;;10.95;100.00
28306;BME280;7516;43.570;1.448;2023-03-19T05:40:09;99857.78;;;10.93;100.00
28306;BME280;7516;43.570;1.448;2023-03-19T05:42:37;99865.81;;;10.91;100.00
28306;BME280;7516;43.570;1.448;2023-03-19T05:45:05;99865.66;;;10.93;100.00
28306;BME280;7516;43.570;1.448;2023-03-19T05:47:33;99869.78;;;10.87;100.00
28306;BME280;7516;43.570;1.448;2023-03-19T05:50:01;99865.34;;;10.88;100.00
28306;BME280;7516;43.570;1.448;2023-03-19T05:52:30;99873.38;;;10.86;100.00
28306;BME280;7516;43.570;1.448;2023-03-19T05:54:57;99868.16;;;10.86;100.00
28306;BME280;7516;43.570;1.448;2023-03-19T05:57:25;99866.84;;;10.82;100.00
28306;BME280;7516;43.570;1.448;2023-03-19T05:59:52;99880.13;;;10.81;100.00
28306;BME280;7516;43.570;1.448;2023-03-19T06:02:20;99874.88;;;10.81;100.00
28306;BME280;7516;43.570;1.448;2023-03-19T06:04:47;99883.75;;;10.80;100.00
28306;BME280;7516;43.570;1.448;2023-03-19T06:07:15;99889.59;;;10.82;100.00
28306;BME280;7516;43.570;1.448;2023-03-19T06:09:44;99897.47;;;10.82;100.00
28306;BME280;7516;43.570;1.448;2023-03-19T06:12:12;99899.09;;;10.83;100.00
28306;BME280;7516;43.570;1.448;2023-03-19T06:14:39;99903.38;;;10.84;100.00
28306;BME280;7516;43.570;1.448;2023-03-19T06:17:07;99904.03;;;10.86;100.00
28306;BME280;7516;43.570;1.448;2023-03-19T06:19:34;99903.06;;;10.79;100.00
28306;BME280;7516;43.570;1.448;2023-03-19T06:22:02;99896.06;;;10.71;100.00
28306;BME280;7516;43.570;1.448;2023-03-19T06:24:29;99907.81;;;10.75;100.00
28306;BME280;7516;43.570;1.448;2023-03-19T06:26:58;99914.38;;;10.79;100.00
28306;BME280;7516;43.570;1.448;2023-03-19T06:29:26;99913.56;;;10.79;100.00
28306;BME280;7516;43.570;1.448;2023-03-19T06:31:54;99927.31;;;10.81;100.00
28306;BME280;7516;43.570;1.448;2023-03-19T06:34:21;99920.44;;;10.80;100.00
28306;BME280;7516;43.570;1.448;2023-03-19T06:36:49;99919.25;;;10.82;100.00
28306;BME280;7516;43.570;1.448;2023-03-19T06:39:18;99929.25;;;10.87;100.00
28306;BME280;7516;43.570;1.448;2023-03-19T06:41:46;99930.22;;;10.94;100.00
28306;BME280;7516;43.570;1.448;2023-03-19T06:44:15;99928.91;;;10.98;100.00
28306;BME280;7516;43.570;1.448;2023-03-19T06:46:43;99927.91;;;10.99;100.00
28306;BME280;7516;43.570;1.448;2023-03-19T06:49:11;99937.09;;;10.95;100.00
28306;BME280;7516;43.570;1.448;2023-03-19T06:51:38;99942.19;;;10.97;100.00
28306;BME280;7516;43.570;1.448;2023-03-19T06:54:06;99945.47;;;10.99;100.00
28306;BME280;7516;43.570;1.448;2023-03-19T06:56:34;99943.94;;;11.04;100.00
28306;BME280;7516;43.570;1.448;2023-03-19T06:59:01;99945.44;;;11.07;100.00
28306;BME280;7516;43.570;1.448;2023-03-19T07:01:30;99943.25;;;11.10;100.00
28306;BME280;7516;43.570;1.448;2023-03-19T07:03:57;99948.69;;;11.09;100.00
28306;BME280;7516;43.570;1.448;2023-03-19T07:06:25;99953.75;;;11.10;100.00
28306;BME280;7516;43.570;1.448;2023-03-19T07:08:52;99960.31;;;11.14;100.00
28306;BME280;7516;43.570;1.448;2023-03-19T07:11:21;99959.63;;;11.20;100.00
28306;BME280;7516;43.570;1.448;2023-03-19T07:13:48;99963.97;;;11.36;100.00
28306;BME280;7516;43.570;1.448;2023-03-19T07:16:16;99963.81;;;11.38;100.00
28306;BME280;7516;43.570;1.448;2023-03-19T07:18:44;99967.25;;;11.38;100.00
28306;BME280;7516;43.570;1.448;2023-03-19T07:21:12;99979.69;;;11.44;100.00
28306;BME280;7516;43.570;1.448;2023-03-19T07:23:39;99969.19;;;11.44;100.00
28306;BME280;7516;43.570;1.448;2023-03-19T07:26:07;99978.56;;;11.39;100.00
28306;BME280;7516;43.570;1.448;2023-03-19T07:28:34;99989.34;;;11.52;100.00
28306;BME280;7516;43.570;1.448;2023-03-19T07:31:03;99984.06;;;11.60;100.00
28306;BME280;7516;43.570;1.448;2023-03-19T07:33:32;99995.56;;;11.59;100.00
28306;BME280;7516;43.570;1.448;2023-03-19T07:36:01;99986.97;;;11.65;100.00
28306;BME280;7516;43.570;1.448;2023-03-19T07:38:28;100000.56;;;11.77;100.00
28306;BME280;7516;43.570;1.448;2023-03-19T07:40:56;100000.22;;;11.80;100.00
28306;BME280;7516;43.570;1.448;2023-03-19T07:43:23;100001.34;;;11.85;100.00
28306;BME280;7516;43.570;1.448;2023-03-19T07:45:51;100000.53;;;11.85;100.00
28306;BME280;7516;43.570;1.448;2023-03-19T07:48:18;99997.81;;;12.01;100.00
28306;BME280;7516;43.570;1.448;2023-03-19T07:50:46;99991.34;;;12.12;100.00
28306;BME280;7516;43.570;1.448;2023-03-19T07:53:17;100002.06;;;12.25;100.00
28306;BME280;7516;43.570;1.448;2023-03-19T07:55:46;100002.94;;;12.17;100.00
28306;BME280;7516;43.570;1.448;2023-03-19T07:58:13;100007.84;;;12.20;100.00
28306;BME280;7516;43.570;1.448;2023-03-19T08:00:41;100018.81;;;12.24;100.00
28306;BME280;7516;43.570;1.448;2023-03-19T08:03:09;100017.19;;;12.23;100.00
28306;BME280;7516;43.570;1.448;2023-03-19T08:05:37;100024.13;;;12.16;100.00
28306;BME280;7516;43.570;1.448;2023-03-19T08:08:05;100017.59;;;12.12;100.00
28306;BME280;7516;43.570;1.448;2023-03-19T08:10:34;100020.88;;;12.14;100.00
28306;BME280;7516;43.570;1.448;2023-03-19T08:13:01;100027.28;;;12.11;100.00
28306;BME280;7516;43.570;1.448;2023-03-19T08:15:30;100031.06;;;12.09;100.00
28306;BME280;7516;43.570;1.448;2023-03-19T08:17:58;100031.41;;;12.05;100.00
28306;BME280;7516;43.570;1.448;2023-03-19T08:20:26;100032.06;;;12.07;100.00
28306;BME280;7516;43.570;1.448;2023-03-19T08:22:53;100043.28;;;12.01;100.00
28306;BME280;7516;43.570;1.448;2023-03-19T08:25:21;100043.72;;;12.05;100.00
28306;BME280;7516;43.570;1.448;2023-03-19T08:27:50;100048.66;;;12.08;100.00
28306;BME280;7516;43.570;1.448;2023-03-19T08:30:18;100048.09;;;12.21;100.00
28306;BME280;7516;43.570;1.448;2023-03-19T08:32:45;100059.97;;;12.31;100.00
28306;BME280;7516;43.570;1.448;2023-03-19T08:35:14;100047.88;;;12.30;100.00
28306;BME280;7516;43.570;1.448;2023-03-19T08:37:42;100051.09;;;12.32;100.00
28306;BME280;7516;43.570;1.448;2023-03-19T08:40:10;100051.69;;;12.42;100.00
28306;BME280;7516;43.570;1.448;2023-03-19T08:42:38;100053.94;;;12.54;100.00
28306;BME280;7516;43.570;1.448;2023-03-19T08:45:10;100061.25;;;12.58;100.00
28306;BME280;7516;43.570;1.448;2023-03-19T08:47:38;100055.25;;;12.72;100.00
28306;BME280;7516;43.570;1.448;2023-03-19T08:50:08;100060.13;;;12.75;100.00
28306;BME280;7516;43.570;1.448;2023-03-19T08:52:36;100063.59;;;12.76;100.00
28306;BME280;7516;43.570;1.448;2023-03-19T08:55:04;100068.31;;;12.66;100.00
28306;BME280;7516;43.570;1.448;2023-03-19T08:57:32;100085.34;;;12.47;100.00
28306;BME280;7516;43.570;1.448;2023-03-19T09:00:00;100079.50;;;12.37;100.00
28306;BME280;7516;43.570;1.448;2023-03-19T09:02:30;100086.41;;;12.38;100.00
28306;BME280;7516;43.570;1.448;2023-03-19T09:04:57;100086.63;;;12.51;100.00
28306;BME280;7516;43.570;1.448;2023-03-19T09:07:25;100092.47;;;12.61;100.00
28306;BME280;7516;43.570;1.448;2023-03-19T09:09:52;100096.69;;;12.70;100.00
28306;BME280;7516;43.570;1.448;2023-03-19T09:12:20;100092.34;;;12.77;100.00
28306;BME280;7516;43.570;1.448;2023-03-19T09:14:47;100099.72;;;12.82;100.00
28306;BME280;7516;43.570;1.448;2023-03-19T09:17:15;100100.34;;;12.84;100.00
28306;BME280;7516;43.570;1.448;2023-03-19T09:19:44;100100.91;;;12.94;100.00
28306;BME280;7516;43.570;1.448;2023-03-19T09:22:12;100093.84;;;12.95;100.00
28306;BME280;7516;43.570;1.448;2023-03-19T09:24:39;100093.38;;;13.14;100.00
28306;BME280;7516;43.570;1.448;2023-03-19T09:27:07;100094.84;;;13.31;100.00
28306;BME280;7516;43.570;1.448;2023-03-19T09:29:34;100100.13;;;13.46;100.00
28306;BME280;7516;43.570;1.448;2023-03-19T09:32:02;100100.50;;;13.57;100.00
28306;BME280;7516;43.570;1.448;2023-03-19T09:34:29;100107.59;;;13.42;100.00
28306;BME280;7516;43.570;1.448;2023-03-19T09:36:58;100106.59;;;13.43;100.00
28306;BME280;7516;43.570;1.448;2023-03-19T09:39:26;100104.84;;;13.36;100.00
28306;BME280;7516;43.570;1.448;2023-03-19T09:42:07;100106.75;;;13.27;100.00
28306;BME280;7516;43.570;1.448;2023-03-19T09:44:39;100104.81;;;13.21;100.00
28306;BME280;7516;43.570;1.448;2023-03-19T09:47:24;100094.69;;;13.33;100.00
28306;BME280;7516;43.570;1.448;2023-03-19T09:49:53;100107.28;;;13.37;100.00
28306;BME280;7516;43.570;1.448;2023-03-19T09:52:41;100095.59;;;13.40;100.00
28306;BME280;7516;43.570;1.448;2023-03-19T09:55:16;100099.50;;;13.44;100.00
28306;BME280;7516;43.570;1.448;2023-03-19T09:57:45;100096.56;;;13.39;100.00
28306;BME280;7516;43.570;1.448;2023-03-19T10:00:22;100092.44;;;13.44;100.00
28306;BME280;7516;43.570;1.448;2023-03-19T10:02:55;100096.16;;;13.35;100.00
28306;BME280;7516;43.570;1.448;2023-03-19T10:05:31;100108.75;;;13.25;100.00
28306;BME280;7516;43.570;1.448;2023-03-19T10:08:23;100102.66;;;13.02;100.00
28306;BME280;7516;43.570;1.448;2023-03-19T10:11:01;100103.56;;;12.94;100.00
28306;BME280;7516;43.570;1.448;2023-03-19T10:13:42;100095.59;;;13.02;100.00
28306;BME280;7516;43.570;1.448;2023-03-19T10:16:17;100097.06;;;13.05;100.00
28306;BME280;7516;43.570;1.448;2023-03-19T10:18:49;100095.34;;;13.12;100.00
28306;BME280;7516;43.570;1.448;2023-03-19T10:21:21;100099.34;;;13.08;100.00
28306;BME280;7516;43.570;1.448;2023-03-19T10:23:56;100102.22;;;13.13;100.00
28306;BME280;7516;43.570;1.448;2023-03-19T10:26:28;100100.03;;;13.25;100.00
28306;BME280;7516;43.570;1.448;2023-03-19T10:29:02;100105.28;;;13.39;100.00
28306;BME280;7516;43.570;1.448;2023-03-19T10:31:46;100096.94;;;13.65;100.00
28306;BME280;7516;43.570;1.448;2023-03-19T10:34:29;100096.66;;;13.75;100.00
28306;BME280;7516;43.570;1.448;2023-03-19T10:37:02;100098.56;;;13.81;100.00
28306;BME280;7516;43.570;1.448;2023-03-19T10:39:35;100094.41;;;13.86;100.00
28306;BME280;7516;43.570;1.448;2023-03-19T10:42:20;100099.31;;;13.89;100.00
28306;BME280;7516;43.570;1.448;2023-03-19T10:44:58;100101.84;;;13.83;100.00
28306;BME280;7516;43.570;1.448;2023-03-19T10:47:26;100099.50;;;13.88;100.00
28306;BME280;7516;43.570;1.448;2023-03-19T10:49:55;100103.66;;;13.97;100.00
28306;BME280;7516;43.570;1.448;2023-03-19T10:52:26;100100.09;;;14.05;100.00
28306;BME280;7516;43.570;1.448;2023-03-19T10:55:02;100099.09;;;14.06;100.00
28306;BME280;7516;43.570;1.448;2023-03-19T10:57:32;100100.28;;;14.03;100.00
28306;BME280;7516;43.570;1.448;2023-03-19T11:00:03;100106.63;;;14.09;100.00
28306;BME280;7516;43.570;1.448;2023-03-19T11:02:32;100102.81;;;14.11;100.00
28306;BME280;7516;43.570;1.448;2023-03-19T11:05:07;100099.41;;;14.17;100.00
28306;BME280;7516;43.570;1.448;2023-03-19T11:07:49;100107.22;;;14.40;100.00
28306;BME280;7516;43.570;1.448;2023-03-19T11:10:19;100105.66;;;14.31;100.00
28306;BME280;7516;43.570;1.448;2023-03-19T11:12:54;100104.91;;;14.16;99.83
28306;BME280;7516;43.570;1.448;2023-03-19T11:15:25;100118.00;;;13.94;100.00
28306;BME280;7516;43.570;1.448;2023-03-19T11:17:57;100124.63;;;13.46;100.00
28306;BME280;7516;43.570;1.448;2023-03-19T11:20:28;100107.91;;;13.25;100.00
28306;BME280;7516;43.570;1.448;2023-03-19T11:22:58;100106.22;;;13.09;100.00
28306;BME280;7516;43.570;1.448;2023-03-19T11:25:33;100106.53;;;13.14;100.00
28306;BME280;7516;43.570;1.448;2023-03-19T11:28:06;100098.78;;;13.12;100.00
28306;BME280;7516;43.570;1.448;2023-03-19T11:30:39;100093.94;;;13.24;100.00
28306;BME280;7516;43.570;1.448;2023-03-19T11:33:31;100079.97;;;13.38;100.00
28306;BME280;7516;43.570;1.448;2023-03-19T11:36:10;100085.25;;;13.53;100.00
28306;BME280;7516;43.570;1.448;2023-03-19T11:38:48;100077.88;;;13.78;100.00
28306;BME280;7516;43.570;1.448;2023-03-19T11:41:28;100088.38;;;13.92;100.00
28306;BME280;7516;43.570;1.448;2023-03-19T11:44:00;100079.31;;;14.16;100.00
28306;BME280;7516;43.570;1.448;2023-03-19T11:46:37;100082.66;;;14.40;100.00
28306;BME280;7516;43.570;1.448;2023-03-19T11:49:19;100086.25;;;14.53;100.00
28306;BME280;7516;43.570;1.448;2023-03-19T11:51:53;100076.69;;;14.52;100.00
28306;BME280;7516;43.570;1.448;2023-03-19T11:54:32;100084.25;;;14.55;100.00
28306;BME280;7516;43.570;1.448;2023-03-19T11:57:10;100072.53;;;14.43;100.00
28306;BME280;7516;43.570;1.448;2023-03-19T11:59:49;100087.34;;;14.08;100.00
28306;BME280;7516;43.570;1.448;2023-03-19T12:02:55;100073.81;;;13.61;100.00
28306;BME280;7516;43.570;1.448;2023-03-19T12:05:30;100077.25;;;13.46;100.00
28306;BME280;7516;43.570;1.448;2023-03-19T12:08:11;100071.91;;;13.40;100.00
28306;BME280;7516;43.570;1.448;2023-03-19T12:10:54;100070.44;;;13.37;100.00
28306;BME280;7516;43.570;1.448;2023-03-19T12:13:35;100072.44;;;13.50;100.00
28306;BME280;7516;43.570;1.448;2023-03-19T12:16:13;100072.91;;;13.53;100.00
28306;BME280;7516;43.570;1.448;2023-03-19T12:19:02;100073.78;;;13.75;100.00
28306;BME280;7516;43.570;1.448;2023-03-19T12:21:44;100066.06;;;13.88;100.00
28306;BME280;7516;43.570;1.448;2023-03-19T12:24:20;100071.75;;;14.07;100.00
28306;BME280;7516;43.570;1.448;2023-03-19T12:27:00;100067.19;;;14.15;100.00
28306;BME280;7516;43.570;1.448;2023-03-19T12:29:37;100078.59;;;14.22;100.00
28306;BME280;7516;43.570;1.448;2023-03-19T12:32:19;100068.44;;;14.19;98.69
28306;BME280;7516;43.570;1.448;2023-03-19T12:34:51;100067.44;;;14.20;100.00
28306;BME280;7516;43.570;1.448;2023-03-19T12:37:24;100069.19;;;14.35;98.49
28306;BME280;7516;43.570;1.448;2023-03-19T12:40:06;100054.41;;;14.55;98.72
28306;BME280;7516;43.570;1.448;2023-03-19T12:42:40;100054.31;;;14.69;97.24
28306;BME280;7516;43.570;1.448;2023-03-19T12:45:25;100050.00;;;14.83;97.33
28306;BME280;7516;43.570;1.448;2023-03-19T12:47:58;100045.50;;;14.77;95.06
28306;BME280;7516;43.570;1.448;2023-03-19T12:50:28;100036.53;;;14.78;94.21
28306;BME280;7516;43.570;1.448;2023-03-19T12:52:58;100057.28;;;14.81;94.75
28306;BME280;7516;43.570;1.448;2023-03-19T12:55:34;100062.25;;;14.69;92.96
28306;BME280;7516;43.570;1.448;2023-03-19T12:58:07;100043.69;;;14.56;92.85
28306;BME280;7516;43.570;1.448;2023-03-19T13:00:47;100070.19;;;14.48;91.49
28306;BME280;7516;43.570;1.448;2023-03-19T13:03:18;100047.56;;;14.39;90.13
28306;BME280;7516;43.570;1.448;2023-03-19T13:05:51;100055.63;;;14.38;90.19
28306;BME280;7516;43.570;1.448;2023-03-19T13:08:28;100038.09;;;14.45;90.88
28306;BME280;7516;43.570;1.448;2023-03-19T13:11:00;100038.84;;;14.60;90.72
28306;BME280;7516;43.570;1.448;2023-03-19T13:13:37;100021.59;;;14.85;90.73